createdAt,value
2022-11-30T00:01:01.548Z,69.62
2022-11-30T00:03:32.288Z,69.63
2022-11-30T00:06:08.914Z,69.64
2022-11-30T00:08:39.660Z,69.62
2022-11-30T00:11:17.743Z,69.61
2022-11-30T00:13:48.529Z,69.59
2022-11-30T00:16:19.295Z,69.50
2022-11-30T00:18:50.392Z,69.38
2022-11-30T00:21:21.233Z,69.38
2022-11-30T00:23:51.989Z,69.40
2022-11-30T00:26:23.325Z,69.38
2022-11-30T00:28:54.322Z,69.36
2022-11-30T00:31:24.955Z,69.30
2022-11-30T00:33:55.758Z,69.13
2022-11-30T00:36:26.420Z,69.25
2022-11-30T00:38:57.058Z,69.28
2022-11-30T00:41:27.699Z,69.11
2022-11-30T00:43:58.345Z,69.26
2022-11-30T00:46:28.954Z,69.16
2022-11-30T00:48:59.761Z,69.29
2022-11-30T00:51:30.479Z,69.20
2022-11-30T00:54:01.127Z,69.18
2022-11-30T00:56:31.823Z,69.30
2022-11-30T00:59:02.491Z,69.67
2022-11-30T01:01:33.161Z,69.47
2022-11-30T01:04:04.516Z,69.55
2022-11-30T01:06:35.172Z,69.41
2022-11-30T01:09:06.546Z,69.63
2022-11-30T01:11:37.298Z,69.38
2022-11-30T01:14:08.109Z,69.36
2022-11-30T01:16:38.996Z,69.38
2022-11-30T01:19:09.721Z,69.51
2022-11-30T01:21:41.096Z,69.30
2022-11-30T01:24:13.242Z,69.40
2022-11-30T01:26:43.806Z,69.18
2022-11-30T01:29:14.437Z,69.27
2022-11-30T01:31:45.068Z,69.18
2022-11-30T01:34:15.848Z,69.15
2022-11-30T01:36:48.624Z,69.02
2022-11-30T01:39:19.409Z,68.92
2022-11-30T01:41:50.118Z,69.02
2022-11-30T01:44:52.910Z,69.01
2022-11-30T01:47:29.584Z,68.94
2022-11-30T01:50:06.005Z,69.17
2022-11-30T01:52:39.765Z,68.97
2022-11-30T01:55:19.875Z,68.78
2022-11-30T01:57:52.673Z,68.84
2022-11-30T02:00:24.444Z,68.76
2022-11-30T02:03:01.541Z,68.92
2022-11-30T02:05:32.644Z,68.94
2022-11-30T02:08:03.900Z,68.75
2022-11-30T02:10:38.221Z,68.91
2022-11-30T02:13:35.928Z,68.81
2022-11-30T02:16:18.756Z,68.62
2022-11-30T02:19:00.761Z,68.72
2022-11-30T02:21:41.601Z,68.76
2022-11-30T02:24:36.375Z,68.96
2022-11-30T02:27:16.138Z,68.81
2022-11-30T02:29:50.773Z,68.97
2022-11-30T02:32:26.969Z,68.85
2022-11-30T02:34:59.673Z,68.71
2022-11-30T02:37:31.174Z,68.86
2022-11-30T02:40:02.473Z,69.18
2022-11-30T02:42:33.124Z,69.07
2022-11-30T02:45:04.260Z,68.74
2022-11-30T02:47:41.911Z,68.47
2022-11-30T02:50:16.586Z,68.75
2022-11-30T02:52:48.039Z,68.62
2022-11-30T02:55:20.912Z,68.56
2022-11-30T02:57:51.646Z,68.48
2022-11-30T03:00:23.572Z,68.60
2022-11-30T03:02:55.087Z,68.70
2022-11-30T03:05:25.835Z,68.50
2022-11-30T03:07:56.639Z,68.54
2022-11-30T03:10:27.394Z,68.56
2022-11-30T03:13:01.452Z,68.77
2022-11-30T03:15:32.164Z,68.69
2022-11-30T03:18:05.996Z,68.67
2022-11-30T03:20:36.605Z,68.70
2022-11-30T03:23:07.168Z,68.79
2022-11-30T03:25:37.779Z,68.77
2022-11-30T03:28:08.533Z,68.77
2022-11-30T03:30:39.138Z,68.68
2022-11-30T03:33:09.848Z,68.83
2022-11-30T03:35:40.601Z,68.77
2022-11-30T03:38:11.682Z,68.60
2022-11-30T03:40:42.371Z,68.78
2022-11-30T03:43:13.184Z,68.81
2022-11-30T03:45:47.657Z,68.73
2022-11-30T03:48:18.272Z,68.96
2022-11-30T03:50:50.225Z,69.04
2022-11-30T03:53:22.305Z,69.19
2022-11-30T03:55:56.971Z,69.10
2022-11-30T03:58:28.099Z,68.99
2022-11-30T04:01:04.175Z,69.22
2022-11-30T04:03:35.365Z,69.33
2022-11-30T04:06:07.964Z,69.50
2022-11-30T04:08:39.239Z,69.44
2022-11-30T04:11:10.729Z,69.30
2022-11-30T04:13:44.269Z,69.24
2022-11-30T04:16:14.937Z,69.58
2022-11-30T04:18:45.733Z,69.39
2022-11-30T04:21:16.354Z,69.43
2022-11-30T04:23:47.090Z,69.54
2022-11-30T04:26:18.990Z,69.41
2022-11-30T04:28:49.669Z,69.73
2022-11-30T04:31:20.354Z,69.68
2022-11-30T04:33:53.568Z,69.46
2022-11-30T04:36:24.241Z,69.51
2022-11-30T04:38:54.839Z,69.82
2022-11-30T04:41:25.581Z,69.51
2022-11-30T04:43:56.597Z,69.88
2022-11-30T04:46:27.452Z,69.66
2022-11-30T04:48:58.290Z,69.57
2022-11-30T04:51:28.911Z,69.89
2022-11-30T04:53:59.612Z,69.90
2022-11-30T04:56:38.635Z,69.87
2022-11-30T04:59:08.126Z,70.07
2022-11-30T05:01:41.637Z,69.78
2022-11-30T05:04:12.280Z,70.16
2022-11-30T05:06:43.088Z,70.22
2022-11-30T05:09:13.758Z,69.94
2022-11-30T05:11:44.358Z,69.88
2022-11-30T05:14:15.194Z,69.82
2022-11-30T05:16:47.909Z,69.82
2022-11-30T05:19:18.576Z,70.09
2022-11-30T05:21:49.177Z,69.82
2022-11-30T05:24:19.922Z,70.03
2022-11-30T05:26:50.686Z,69.84
2022-11-30T05:29:21.349Z,69.57
2022-11-30T05:31:52.050Z,69.87
2022-11-30T05:34:22.707Z,69.95
2022-11-30T05:36:53.534Z,69.83
2022-11-30T05:39:24.101Z,69.72
2022-11-30T05:41:55.074Z,69.58
2022-11-30T05:44:25.803Z,69.86
2022-11-30T05:46:56.815Z,69.42
2022-11-30T05:49:27.614Z,69.36
2022-11-30T05:51:58.274Z,69.57
2022-11-30T05:54:28.976Z,69.58
2022-11-30T05:56:59.615Z,69.54
2022-11-30T05:59:30.283Z,69.47
2022-11-30T06:02:00.994Z,69.30
2022-11-30T06:04:32.115Z,69.39
2022-11-30T06:07:03.005Z,69.48
2022-11-30T06:09:33.606Z,69.45
2022-11-30T06:12:04.322Z,69.54
2022-11-30T06:14:35.063Z,69.73
2022-11-30T06:17:05.894Z,69.52
2022-11-30T06:19:36.902Z,69.59
2022-11-30T06:22:07.520Z,69.43
2022-11-30T06:24:38.161Z,69.70
2022-11-30T06:27:08.727Z,69.71
2022-11-30T06:29:39.407Z,69.86
2022-11-30T06:32:10.769Z,69.69
2022-11-30T06:34:41.491Z,69.80
2022-11-30T06:37:12.278Z,69.83
2022-11-30T06:40:05.569Z,70.04
2022-11-30T06:42:33.931Z,69.75
2022-11-30T06:45:05.476Z,69.80
2022-11-30T06:47:36.169Z,70.36
2022-11-30T06:50:09.700Z,70.32
2022-11-30T06:52:40.394Z,73.38
2022-11-30T06:55:11.936Z,84.58
2022-11-30T06:57:42.828Z,84.76
2022-11-30T07:00:15.637Z,77.87
2022-11-30T07:02:46.484Z,73.66
2022-11-30T07:05:17.312Z,71.52
2022-11-30T07:07:48.609Z,70.40
2022-11-30T07:10:20.366Z,69.55
2022-11-30T07:12:51.550Z,69.24
2022-11-30T07:15:22.208Z,68.76
2022-11-30T07:17:52.911Z,68.65
2022-11-30T07:20:23.586Z,68.78
2022-11-30T07:22:57.784Z,68.70
2022-11-30T07:25:45.955Z,68.64
2022-11-30T07:28:16.597Z,68.65
2022-11-30T07:30:47.420Z,68.52
2022-11-30T07:33:18.060Z,68.45
2022-11-30T07:35:48.694Z,68.37
2022-11-30T07:38:19.340Z,67.84
2022-11-30T07:40:50.023Z,67.54
2022-11-30T07:43:20.578Z,67.32
2022-11-30T07:45:56.219Z,66.72
2022-11-30T07:48:27.112Z,66.45
2022-11-30T07:51:02.511Z,65.94
2022-11-30T07:53:33.129Z,65.85
2022-11-30T07:56:09.984Z,65.57
2022-11-30T07:58:41.625Z,65.51
2022-11-30T08:01:15.123Z,65.20
2022-11-30T08:03:46.217Z,63.89
2022-11-30T08:06:20.119Z,64.23
2022-11-30T08:08:52.615Z,63.85
2022-11-30T08:11:25.274Z,63.32
2022-11-30T08:13:56.296Z,63.11
2022-11-30T08:16:29.181Z,62.91
2022-11-30T08:18:58.869Z,62.43
2022-11-30T08:21:29.471Z,62.35
2022-11-30T08:24:00.220Z,62.35
2022-11-30T08:26:32.894Z,61.93
2022-11-30T08:29:03.873Z,61.80
2022-11-30T08:31:37.355Z,61.55
2022-11-30T08:34:10.652Z,61.03
2022-11-30T08:36:43.398Z,60.71
2022-11-30T08:39:15.608Z,60.09
2022-11-30T08:41:46.330Z,59.35
2022-11-30T08:44:16.926Z,59.56
2022-11-30T08:49:38.512Z,60.22
2022-11-30T08:52:18.166Z,59.72
2022-11-30T08:54:50.618Z,59.24
2022-11-30T08:57:22.811Z,58.84
2022-11-30T08:59:53.505Z,58.85
2022-11-30T09:02:24.426Z,58.94
2022-11-30T09:04:55.179Z,58.65
2022-11-30T09:07:25.957Z,58.27
2022-11-30T09:09:56.860Z,58.48
2022-11-30T09:12:27.575Z,58.45
2022-11-30T09:14:58.853Z,58.67
2022-11-30T09:17:30.059Z,58.48
2022-11-30T09:20:02.446Z,58.23
2022-11-30T09:22:33.312Z,58.52
2022-11-30T09:25:03.963Z,58.24
2022-11-30T09:27:35.832Z,58.49
2022-11-30T09:30:08.688Z,58.78
2022-11-30T09:32:39.537Z,59.03
2022-11-30T09:35:12.903Z,59.19
2022-11-30T09:37:43.959Z,59.25
2022-11-30T09:40:16.677Z,59.04
2022-11-30T09:42:58.685Z,58.53
2022-11-30T09:45:32.838Z,58.75
2022-11-30T09:48:26.472Z,58.47
2022-11-30T09:51:01.111Z,58.19
2022-11-30T09:53:39.608Z,58.48
2022-11-30T09:56:20.942Z,58.24
2022-11-30T09:58:57.423Z,58.90
2022-11-30T10:01:32.000Z,58.60
2022-11-30T10:04:03.877Z,58.37
2022-11-30T10:06:44.229Z,58.59
2022-11-30T10:09:30.768Z,58.18
2022-11-30T10:12:07.101Z,58.24
2022-11-30T10:15:06.676Z,58.32
2022-11-30T10:17:44.275Z,58.27
2022-11-30T10:20:28.007Z,57.89
2022-11-30T10:23:11.923Z,57.95
2022-11-30T10:25:52.336Z,58.11
2022-11-30T10:31:21.423Z,58.12
2022-11-30T10:33:53.726Z,58.24
2022-11-30T10:36:31.042Z,58.24
2022-11-30T10:39:04.512Z,58.42
2022-11-30T10:41:44.645Z,58.35
2022-11-30T10:44:23.119Z,58.69
2022-11-30T10:47:00.656Z,58.77
2022-11-30T10:49:33.963Z,58.71
2022-11-30T10:52:09.715Z,58.76
2022-11-30T10:54:40.473Z,58.71
2022-11-30T10:57:14.508Z,58.51
2022-11-30T10:59:49.167Z,58.73
2022-11-30T11:02:45.765Z,59.14
2022-11-30T11:05:23.795Z,59.41
2022-11-30T11:08:04.375Z,58.98
2022-11-30T11:10:46.884Z,58.95
2022-11-30T11:13:21.687Z,59.11
2022-11-30T11:16:01.812Z,58.87
2022-11-30T11:18:33.854Z,58.81
2022-11-30T11:21:08.009Z,59.07
2022-11-30T11:23:41.669Z,58.83
2022-11-30T11:26:21.438Z,58.70
2022-11-30T11:28:53.694Z,58.70
2022-11-30T11:31:37.371Z,58.97
2022-11-30T11:34:24.855Z,58.85
2022-11-30T11:37:08.090Z,58.97
2022-11-30T11:39:38.688Z,59.31
2022-11-30T11:42:22.746Z,59.32
2022-11-30T11:44:56.902Z,59.39
2022-11-30T11:47:30.094Z,59.75
2022-11-30T11:50:58.308Z,60.06
2022-11-30T11:53:25.755Z,59.94
2022-11-30T11:56:01.022Z,60.05
2022-11-30T11:58:43.247Z,60.09
2022-11-30T12:04:41.185Z,60.81
2022-11-30T12:07:22.166Z,60.94
2022-11-30T12:10:09.601Z,61.17
2022-11-30T12:12:55.098Z,61.31
2022-11-30T12:15:33.482Z,61.26
2022-11-30T12:18:23.594Z,61.26
2022-11-30T12:21:01.661Z,61.25
2022-11-30T12:23:56.368Z,61.23
2022-11-30T12:26:35.776Z,61.17
2022-11-30T12:29:24.598Z,61.06
2022-11-30T12:32:12.079Z,61.10
2022-11-30T12:34:57.421Z,61.28
2022-11-30T12:37:37.480Z,61.09
2022-11-30T12:40:27.607Z,60.80
2022-11-30T12:43:08.221Z,61.12
2022-11-30T12:45:43.621Z,61.42
2022-11-30T12:48:26.639Z,61.28
2022-11-30T12:51:12.194Z,61.55
2022-11-30T12:53:49.817Z,61.45
2022-11-30T12:56:31.835Z,61.50
2022-11-30T12:59:15.592Z,61.67
2022-11-30T13:02:09.978Z,61.84
2022-11-30T13:04:45.262Z,61.74
2022-11-30T13:07:26.839Z,61.88
2022-11-30T13:10:04.068Z,61.67
2022-11-30T13:12:38.369Z,61.65
2022-11-30T13:15:15.901Z,61.95
2022-11-30T13:17:48.080Z,61.88
2022-11-30T13:20:24.866Z,61.99
2022-11-30T13:23:00.685Z,62.02
2022-11-30T13:28:41.019Z,61.82
2022-11-30T13:31:18.727Z,61.80
2022-11-30T13:33:57.804Z,61.69
2022-11-30T13:36:31.942Z,61.63
2022-11-30T13:39:29.043Z,61.29
2022-11-30T13:42:15.992Z,61.42
2022-11-30T13:44:47.547Z,61.44
2022-11-30T13:47:28.378Z,61.53
2022-11-30T13:50:00.777Z,61.53
2022-11-30T13:53:02.450Z,61.70
2022-11-30T13:55:53.855Z,61.58
2022-11-30T13:58:24.889Z,61.67
2022-11-30T14:01:30.699Z,61.63
2022-11-30T14:04:31.785Z,61.76
2022-11-30T14:07:02.577Z,61.86
2022-11-30T14:10:01.888Z,62.12
2022-11-30T14:12:48.599Z,62.36
2022-11-30T14:15:46.607Z,62.38
2022-11-30T14:18:26.102Z,62.30
2022-11-30T14:20:59.212Z,62.39
2022-11-30T14:23:34.678Z,62.56
2022-11-30T14:26:11.091Z,62.15
2022-11-30T14:28:51.351Z,62.34
2022-11-30T14:31:25.995Z,62.68
2022-11-30T14:33:59.950Z,62.59
2022-11-30T14:36:41.333Z,62.59
2022-11-30T14:42:22.714Z,62.85
2022-11-30T14:44:53.647Z,62.95
2022-11-30T14:47:29.806Z,63.28
2022-11-30T14:50:02.986Z,63.44
2022-11-30T14:52:59.760Z,63.50
2022-11-30T14:55:37.279Z,63.97
2022-11-30T14:58:19.143Z,63.86
2022-11-30T15:00:51.050Z,64.05
2022-11-30T15:03:27.244Z,64.51
2022-11-30T15:06:00.442Z,64.34
2022-11-30T15:08:39.401Z,64.27
2022-11-30T15:11:13.007Z,64.19
2022-11-30T15:13:46.208Z,64.48
2022-11-30T15:16:22.777Z,64.63
2022-11-30T15:18:55.490Z,65.07
2022-11-30T15:21:28.811Z,65.23
2022-11-30T15:24:00.811Z,65.07
2022-11-30T15:26:37.807Z,64.93
2022-11-30T15:29:13.916Z,65.20
2022-11-30T15:31:47.081Z,64.88
2022-11-30T15:34:23.126Z,65.17
2022-11-30T15:36:56.771Z,65.15
2022-11-30T15:39:30.348Z,65.02
2022-11-30T15:42:02.746Z,65.04
2022-11-30T15:44:45.453Z,65.05
2022-11-30T15:47:32.880Z,65.11
2022-11-30T15:50:04.455Z,65.41
2022-11-30T15:52:36.384Z,65.36
2022-11-30T15:55:29.913Z,65.55
2022-11-30T15:58:03.255Z,65.84
2022-11-30T16:00:33.998Z,65.96
2022-11-30T16:03:13.209Z,65.77
2022-11-30T16:05:58.353Z,65.74
2022-11-30T16:08:29.469Z,65.84
2022-11-30T16:11:06.186Z,65.84
2022-11-30T16:13:38.498Z,65.94
2022-11-30T16:16:14.083Z,65.62
2022-11-30T16:18:44.906Z,65.85
2022-11-30T16:21:17.684Z,66.57
2022-11-30T16:23:49.181Z,66.85
2022-11-30T16:26:49.527Z,66.96
2022-11-30T16:29:11.821Z,66.55
2022-11-30T16:31:42.630Z,67.07
2022-11-30T16:34:14.119Z,66.57
2022-11-30T16:36:44.939Z,66.60
2022-11-30T16:39:15.573Z,66.78
2022-11-30T16:41:46.333Z,66.34
2022-11-30T16:44:17.466Z,66.54
2022-11-30T16:46:48.761Z,66.53
2022-11-30T16:49:19.424Z,66.70
2022-11-30T16:51:50.126Z,66.74
2022-11-30T16:54:20.933Z,67.03
2022-11-30T16:56:51.703Z,67.08
2022-11-30T16:59:22.465Z,67.41
2022-11-30T17:01:53.867Z,67.27
2022-11-30T17:04:27.006Z,67.74
2022-11-30T17:07:02.736Z,67.35
2022-11-30T17:09:34.715Z,67.71
2022-11-30T17:12:05.667Z,67.26
2022-11-30T17:14:36.338Z,67.71
2022-11-30T17:17:07.159Z,67.77
2022-11-30T17:19:38.832Z,67.16
2022-11-30T17:22:09.459Z,67.01
2022-11-30T17:24:40.098Z,67.09
2022-11-30T17:27:12.058Z,67.03
2022-11-30T17:29:43.773Z,67.22
2022-11-30T17:32:14.694Z,67.42
2022-11-30T17:34:45.605Z,67.68
2022-11-30T17:37:16.959Z,67.66
2022-11-30T17:39:47.738Z,67.84
2022-11-30T17:42:18.449Z,68.14
2022-11-30T17:44:49.570Z,68.24
2022-11-30T17:47:22.184Z,68.51
2022-11-30T17:49:53.394Z,68.62
2022-11-30T17:52:24.028Z,69.00
2022-11-30T17:54:54.711Z,69.11
2022-11-30T17:57:25.417Z,69.40
2022-11-30T17:59:56.234Z,69.49
2022-11-30T18:02:26.969Z,69.36
2022-11-30T18:04:58.348Z,69.69
2022-11-30T18:07:32.940Z,69.70
2022-11-30T18:10:08.730Z,69.87
2022-11-30T18:12:39.734Z,71.36
2022-11-30T18:15:12.059Z,70.73
2022-11-30T18:17:42.724Z,70.22
2022-11-30T18:20:15.057Z,70.40
2022-11-30T18:22:45.828Z,70.44
2022-11-30T18:25:31.223Z,70.33
2022-11-30T18:28:08.486Z,70.53
2022-11-30T18:30:40.977Z,70.42
2022-11-30T18:33:11.838Z,70.27
2022-11-30T18:35:42.511Z,70.31
2022-11-30T18:38:13.620Z,70.33
2022-11-30T18:40:44.813Z,70.40
2022-11-30T18:43:15.777Z,70.71
2022-11-30T18:45:46.535Z,70.50
2022-11-30T18:48:17.423Z,70.72
2022-11-30T18:50:48.261Z,70.85
2022-11-30T18:53:19.302Z,71.03
2022-11-30T18:55:50.002Z,70.94
2022-11-30T18:58:20.734Z,70.95
2022-11-30T19:00:51.557Z,70.84
2022-11-30T19:03:22.510Z,70.99
2022-11-30T19:05:53.310Z,70.75
2022-11-30T19:08:23.975Z,71.04
2022-11-30T19:10:54.660Z,70.73
2022-11-30T19:13:25.454Z,71.10
2022-11-30T19:15:56.234Z,71.23
2022-11-30T19:18:27.075Z,70.85
2022-11-30T19:20:57.827Z,71.09
2022-11-30T19:23:28.646Z,71.28
2022-11-30T19:26:03.514Z,71.16
2022-11-30T19:28:36.573Z,70.73
2022-11-30T19:31:11.734Z,70.88
2022-11-30T19:33:44.315Z,71.15
2022-11-30T19:36:17.037Z,71.11
2022-11-30T19:38:47.906Z,70.82
2022-11-30T19:41:19.581Z,71.03
2022-11-30T19:43:59.594Z,71.13
2022-11-30T19:46:34.617Z,70.83
2022-11-30T19:49:08.025Z,70.81
2022-11-30T19:51:37.131Z,70.99
2022-11-30T19:54:07.978Z,71.37
2022-11-30T19:56:41.159Z,71.60
2022-11-30T19:59:12.073Z,71.57
2022-11-30T20:01:43.015Z,71.70
2022-11-30T20:04:14.310Z,71.75
2022-11-30T20:06:44.986Z,71.73
2022-11-30T20:09:15.750Z,71.95
2022-11-30T20:11:46.385Z,71.98
2022-11-30T20:14:19.711Z,71.83
2022-11-30T20:16:52.834Z,72.07
2022-11-30T20:19:22.036Z,71.92
2022-11-30T20:21:52.973Z,71.92
2022-11-30T20:24:23.763Z,71.98
2022-11-30T20:26:54.617Z,72.31
2022-11-30T20:29:28.898Z,72.09
2022-11-30T20:32:00.224Z,72.22
2022-11-30T20:34:34.621Z,72.38
2022-11-30T20:37:06.782Z,72.49
2022-11-30T20:39:42.529Z,72.40
2022-11-30T20:42:16.432Z,72.53
2022-11-30T20:44:47.743Z,72.57
2022-11-30T20:47:18.779Z,72.99
2022-11-30T20:49:49.990Z,72.98
2022-11-30T20:52:21.082Z,73.51
2022-11-30T20:54:51.828Z,73.15
2022-11-30T20:57:22.453Z,73.33
2022-11-30T20:59:53.324Z,73.73
2022-11-30T21:02:24.271Z,73.84
2022-11-30T21:04:55.096Z,74.08
2022-11-30T21:07:25.887Z,74.17
2022-11-30T21:09:56.656Z,74.25
2022-11-30T21:12:27.303Z,74.45
2022-11-30T21:14:58.007Z,74.44
2022-11-30T21:17:28.839Z,74.55
2022-11-30T21:20:00.650Z,74.24
2022-11-30T21:22:34.711Z,74.37
2022-11-30T21:25:06.093Z,74.75
2022-11-30T21:27:36.854Z,74.16
2022-11-30T21:30:09.953Z,74.16
2022-11-30T21:32:39.041Z,74.22
2022-11-30T21:35:11.432Z,73.93
2022-11-30T21:37:42.061Z,73.90
2022-11-30T21:40:14.602Z,73.94
2022-11-30T21:42:45.341Z,73.67
2022-11-30T21:45:16.110Z,73.90
2022-11-30T21:47:46.803Z,74.01
2022-11-30T21:50:19.887Z,73.70
2022-11-30T21:52:52.596Z,73.65
2022-11-30T21:55:23.168Z,73.51
2022-11-30T21:57:56.246Z,73.68
2022-11-30T22:00:25.615Z,73.00
2022-11-30T22:02:56.485Z,73.31
2022-11-30T22:05:27.124Z,73.21
2022-11-30T22:07:58.043Z,73.18
2022-11-30T22:10:28.798Z,73.46
2022-11-30T22:12:59.399Z,73.24
2022-11-30T22:15:40.411Z,72.94
2022-11-30T22:25:41.506Z,73.15
2022-11-30T22:28:19.403Z,73.00
2022-11-30T22:28:35.933Z,73.24
2022-11-30T22:31:33.129Z,72.74
2022-11-30T22:40:14.961Z,72.94
2022-11-30T22:42:45.729Z,73.12
2022-11-30T22:45:16.757Z,72.95
2022-11-30T22:47:47.427Z,72.68
2022-11-30T22:50:18.275Z,72.87
2022-11-30T22:53:02.945Z,73.03
2022-11-30T22:55:33.915Z,73.29
2022-11-30T22:58:04.667Z,72.55
2022-11-30T23:00:35.274Z,72.29
2022-11-30T23:03:06.320Z,72.38
2022-11-30T23:05:38.338Z,72.73
2022-11-30T23:08:09.407Z,72.90
2022-11-30T23:10:40.323Z,72.96
2022-11-30T23:13:11.099Z,73.19
2022-11-30T23:15:41.765Z,72.97
2022-11-30T23:18:12.558Z,72.57
2022-11-30T23:20:43.149Z,73.26
2022-11-30T23:23:13.823Z,73.41
2022-11-30T23:25:44.776Z,73.49
2022-11-30T23:28:15.526Z,73.67
2022-11-30T23:30:46.200Z,73.95
2022-11-30T23:33:16.936Z,73.72
2022-11-30T23:35:47.494Z,74.04
2022-11-30T23:38:18.070Z,74.20
2022-11-30T23:40:48.682Z,74.01
2022-11-30T23:43:19.353Z,74.05
2022-11-30T23:45:50.054Z,74.04
2022-11-30T23:48:20.690Z,74.03
2022-11-30T23:50:51.291Z,73.96
2022-11-30T23:53:22.567Z,73.45
2022-11-30T23:55:53.620Z,73.88
2022-11-30T23:58:25.339Z,73.60
